Terminal Aerodrome Forecast
Issued by NWS Denver/Boulder, CO

Home | Current Version | Previous Version | Text Only | Print | Product List | Glossary On
Versions: 1 2 3 4 5 6 7 8 9 10 11 12 13 14 15 16 17 18 19 20 21 22 23 24 25 26 27 28 29 30 31 32 33 34 35 36 37 38 39 40 41 42 43 44 45 46 47 48 49 50
000
FTUS45 KBOU 270133 AAC
TAFDEN
TAF AMD
KDEN 270133Z 2702/2806 07013KT P6SM BKN080 BKN120
     FM270300 15011KT P6SM BKN080 BKN120
     FM270600 19010KT P6SM SCT070 BKN110
     FM271000 33008KT P6SM SCT060 OVC080 PROB30 2713/2717 -SHRA
      OVC060
     FM271700 03010KT P6SM BKN080 BKN120
     FM272000 32013G21KT P6SM VCSH SCT070 BKN100
     FM280100 05012KT P6SM -SHRA BKN060 OVC080=

USA.gov is the U.S. government's official web portal to all federal, state and local government web resources and services.